sensor_id;sensor_type;location;lat;lon;timestamp;temperature;humidity
69503;SHT31;56704;54.242;12.442;2022-12-07T00:01:40;1.75;98.24
69503;SHT31;56704;54.242;12.442;2022-12-07T00:04:09;1.74;98.05
69503;SHT31;56704;54.242;12.442;2022-12-07T00:06:38;1.74;98.15
69503;SHT31;56704;54.242;12.442;2022-12-07T00:09:06;1.71;97.98
69503;SHT31;56704;54.242;12.442;2022-12-07T00:11:34;1.71;97.78
69503;SHT31;56704;54.242;12.442;2022-12-07T00:14:03;1.72;97.77
69503;SHT31;56704;54.242;12.442;2022-12-07T00:16:32;1.72;97.88
69503;SHT31;56704;54.242;12.442;2022-12-07T00:18:59;1.69;98.01
69503;SHT31;56704;54.242;12.442;2022-12-07T00:21:28;1.68;98.05
69503;SHT31;56704;54.242;12.442;2022-12-07T00:23:55;1.67;98.10
69503;SHT31;56704;54.242;12.442;2022-12-07T00:26:24;1.68;97.70
69503;SHT31;56704;54.242;12.442;2022-12-07T00:28:54;1.65;97.90
69503;SHT31;56704;54.242;12.442;2022-12-07T00:31:22;1.64;97.87
69503;SHT31;56704;54.242;12.442;2022-12-07T00:33:50;1.62;97.92
69503;SHT31;56704;54.242;12.442;2022-12-07T00:36:18;1.62;97.87
69503;SHT31;56704;54.242;12.442;2022-12-07T00:38:45;1.64;97.72
69503;SHT31;56704;54.242;12.442;2022-12-07T00:41:13;1.61;97.69
69503;SHT31;56704;54.242;12.442;2022-12-07T00:43:42;1.57;97.51
69503;SHT31;56704;54.242;12.442;2022-12-07T00:46:11;1.54;97.49
69503;SHT31;56704;54.242;12.442;2022-12-07T00:48:38;1.51;97.70
69503;SHT31;56704;54.242;12.442;2022-12-07T00:51:05;1.47;97.88
69503;SHT31;56704;54.242;12.442;2022-12-07T00:53:34;1.44;98.02
69503;SHT31;56704;54.242;12.442;2022-12-07T00:56:05;1.41;97.87
69503;SHT31;56704;54.242;12.442;2022-12-07T00:58:31;1.37;98.02
69503;SHT31;56704;54.242;12.442;2022-12-07T01:00:59;1.37;98.20
69503;SHT31;56704;54.242;12.442;2022-12-07T01:03:27;1.34;98.28
69503;SHT31;56704;54.242;12.442;2022-12-07T01:05:55;1.33;98.30
69503;SHT31;56704;54.242;12.442;2022-12-07T01:08:23;1.26;98.27
69503;SHT31;56704;54.242;12.442;2022-12-07T01:10:57;1.26;98.44
69503;SHT31;56704;54.242;12.442;2022-12-07T01:13:24;1.26;98.55
69503;SHT31;56704;54.242;12.442;2022-12-07T01:15:51;1.24;98.39
69503;SHT31;56704;54.242;12.442;2022-12-07T01:18:17;1.22;98.42
69503;SHT31;56704;54.242;12.442;2022-12-07T01:20:57;1.12;98.41
69503;SHT31;56704;54.242;12.442;2022-12-07T01:23:23;1.01;98.48
69503;SHT31;56704;54.242;12.442;2022-12-07T01:25:54;0.95;98.54
69503;SHT31;56704;54.242;12.442;2022-12-07T01:28:21;0.86;98.63
69503;SHT31;56704;54.242;12.442;2022-12-07T01:30:55;0.79;98.69
69503;SHT31;56704;54.242;12.442;2022-12-07T01:33:21;0.68;98.76
69503;SHT31;56704;54.242;12.442;2022-12-07T01:35:49;0.58;98.92
69503;SHT31;56704;54.242;12.442;2022-12-07T01:38:16;0.48;98.88
69503;SHT31;56704;54.242;12.442;2022-12-07T01:40:42;0.42;99.04
69503;SHT31;56704;54.242;12.442;2022-12-07T01:43:15;0.40;99.10
69503;SHT31;56704;54.242;12.442;2022-12-07T01:45:42;0.35;99.23
69503;SHT31;56704;54.242;12.442;2022-12-07T01:48:11;0.37;99.35
69503;SHT31;56704;54.242;12.442;2022-12-07T01:50:40;0.35;99.35
69503;SHT31;56704;54.242;12.442;2022-12-07T01:53:10;0.31;99.28
69503;SHT31;56704;54.242;12.442;2022-12-07T01:55:39;0.29;99.32
69503;SHT31;56704;54.242;12.442;2022-12-07T01:58:07;0.28;99.39
69503;SHT31;56704;54.242;12.442;2022-12-07T02:00:34;0.25;99.40
69503;SHT31;56704;54.242;12.442;2022-12-07T02:03:04;0.22;99.44
69503;SHT31;56704;54.242;12.442;2022-12-07T02:05:33;0.25;99.44
69503;SHT31;56704;54.242;12.442;2022-12-07T02:08:01;0.21;99.40
69503;SHT31;56704;54.242;12.442;2022-12-07T02:10:31;0.24;99.50
69503;SHT31;56704;54.242;12.442;2022-12-07T02:13:01;0.22;99.45
69503;SHT31;56704;54.242;12.442;2022-12-07T02:15:38;0.22;99.48
69503;SHT31;56704;54.242;12.442;2022-12-07T02:18:09;0.19;99.49
69503;SHT31;56704;54.242;12.442;2022-12-07T02:20:39;0.18;99.50
69503;SHT31;56704;54.242;12.442;2022-12-07T02:23:38;0.19;99.49
69503;SHT31;56704;54.242;12.442;2022-12-07T02:26:32;0.24;99.56
69503;SHT31;56704;54.242;12.442;2022-12-07T02:29:17;0.17;99.52
69503;SHT31;56704;54.242;12.442;2022-12-07T02:31:55;0.18;99.47
69503;SHT31;56704;54.242;12.442;2022-12-07T02:34:32;0.17;99.53
69503;SHT31;56704;54.242;12.442;2022-12-07T02:37:06;0.17;99.53
69503;SHT31;56704;54.242;12.442;2022-12-07T02:39:40;0.15;99.55
69503;SHT31;56704;54.242;12.442;2022-12-07T02:42:18;0.15;99.57
69503;SHT31;56704;54.242;12.442;2022-12-07T02:44:49;0.15;99.58
69503;SHT31;56704;54.242;12.442;2022-12-07T02:47:18;0.17;99.55
69503;SHT31;56704;54.242;12.442;2022-12-07T02:49:46;0.17;99.57
69503;SHT31;56704;54.242;12.442;2022-12-07T02:52:13;0.18;99.61
69503;SHT31;56704;54.242;12.442;2022-12-07T02:54:40;0.15;99.55
69503;SHT31;56704;54.242;12.442;2022-12-07T02:57:27;0.14;99.58
69503;SHT31;56704;54.242;12.442;2022-12-07T03:00:05;0.17;99.60
69503;SHT31;56704;54.242;12.442;2022-12-07T03:02:40;0.13;99.60
69503;SHT31;56704;54.242;12.442;2022-12-07T03:05:36;0.13;99.57
69503;SHT31;56704;54.242;12.442;2022-12-07T03:08:09;0.11;99.58
69503;SHT31;56704;54.242;12.442;2022-12-07T03:10:42;0.10;99.56
69503;SHT31;56704;54.242;12.442;2022-12-07T03:13:19;0.08;99.59
69503;SHT31;56704;54.242;12.442;2022-12-07T03:15:54;0.08;99.57
69503;SHT31;56704;54.242;12.442;2022-12-07T03:18:25;0.11;99.59
69503;SHT31;56704;54.242;12.442;2022-12-07T03:20:58;0.11;99.56
69503;SHT31;56704;54.242;12.442;2022-12-07T03:23:27;0.10;99.59
69503;SHT31;56704;54.242;12.442;2022-12-07T03:25:58;0.08;99.58
69503;SHT31;56704;54.242;12.442;2022-12-07T03:28:31;0.10;99.58
69503;SHT31;56704;54.242;12.442;2022-12-07T03:31:02;0.13;99.60
69503;SHT31;56704;54.242;12.442;2022-12-07T03:33:34;0.10;99.63
69503;SHT31;56704;54.242;12.442;2022-12-07T03:36:05;0.11;99.62
69503;SHT31;56704;54.242;12.442;2022-12-07T03:38:36;0.13;99.66
69503;SHT31;56704;54.242;12.442;2022-12-07T03:41:06;0.13;99.63
69503;SHT31;56704;54.242;12.442;2022-12-07T03:43:36;0.10;99.61
69503;SHT31;56704;54.242;12.442;2022-12-07T03:46:12;0.13;99.58
69503;SHT31;56704;54.242;12.442;2022-12-07T03:48:49;0.11;99.59
69503;SHT31;56704;54.242;12.442;2022-12-07T03:51:21;0.11;99.57
69503;SHT31;56704;54.242;12.442;2022-12-07T03:53:53;0.11;99.61
69503;SHT31;56704;54.242;12.442;2022-12-07T03:56:22;0.13;99.65
69503;SHT31;56704;54.242;12.442;2022-12-07T03:58:49;0.14;99.71
69503;SHT31;56704;54.242;12.442;2022-12-07T04:01:17;0.11;99.66
69503;SHT31;56704;54.242;12.442;2022-12-07T04:03:44;0.11;99.62
69503;SHT31;56704;54.242;12.442;2022-12-07T04:06:11;0.11;99.61
69503;SHT31;56704;54.242;12.442;2022-12-07T04:08:38;0.13;99.69
69503;SHT31;56704;54.242;12.442;2022-12-07T04:11:05;0.11;99.63
69503;SHT31;56704;54.242;12.442;2022-12-07T04:13:31;0.15;99.68
69503;SHT31;56704;54.242;12.442;2022-12-07T04:16:19;0.15;99.70
69503;SHT31;56704;54.242;12.442;2022-12-07T04:18:46;0.14;99.73
69503;SHT31;56704;54.242;12.442;2022-12-07T04:21:13;0.11;99.71
69503;SHT31;56704;54.242;12.442;2022-12-07T04:23:39;0.14;99.64
69503;SHT31;56704;54.242;12.442;2022-12-07T04:26:06;0.13;99.64
69503;SHT31;56704;54.242;12.442;2022-12-07T04:28:32;0.14;99.61
69503;SHT31;56704;54.242;12.442;2022-12-07T04:30:59;0.15;99.64
69503;SHT31;56704;54.242;12.442;2022-12-07T04:33:27;0.13;99.63
69503;SHT31;56704;54.242;12.442;2022-12-07T04:35:54;0.15;99.64
69503;SHT31;56704;54.242;12.442;2022-12-07T04:38:20;0.15;99.64
69503;SHT31;56704;54.242;12.442;2022-12-07T04:40:47;0.17;99.63
69503;SHT31;56704;54.242;12.442;2022-12-07T04:43:13;0.18;99.66
69503;SHT31;56704;54.242;12.442;2022-12-07T04:45:45;0.17;99.64
69503;SHT31;56704;54.242;12.442;2022-12-07T04:48:12;0.18;99.65
69503;SHT31;56704;54.242;12.442;2022-12-07T04:50:40;0.15;99.67
69503;SHT31;56704;54.242;12.442;2022-12-07T04:53:07;0.14;99.69
69503;SHT31;56704;54.242;12.442;2022-12-07T04:55:33;0.15;99.71
69503;SHT31;56704;54.242;12.442;2022-12-07T04:58:00;0.17;99.71
69503;SHT31;56704;54.242;12.442;2022-12-07T05:00:26;0.15;99.73
69503;SHT31;56704;54.242;12.442;2022-12-07T05:02:53;0.15;99.74
69503;SHT31;56704;54.242;12.442;2022-12-07T05:05:20;0.18;99.71
69503;SHT31;56704;54.242;12.442;2022-12-07T05:07:47;0.18;99.74
69503;SHT31;56704;54.242;12.442;2022-12-07T05:10:14;0.19;99.74
69503;SHT31;56704;54.242;12.442;2022-12-07T05:12:41;0.17;99.72
69503;SHT31;56704;54.242;12.442;2022-12-07T05:15:08;0.18;99.76
69503;SHT31;56704;54.242;12.442;2022-12-07T05:17:35;0.14;99.76
69503;SHT31;56704;54.242;12.442;2022-12-07T05:20:01;0.18;99.76
69503;SHT31;56704;54.242;12.442;2022-12-07T05:22:28;0.19;99.77
69503;SHT31;56704;54.242;12.442;2022-12-07T05:24:56;0.17;99.76
69503;SHT31;56704;54.242;12.442;2022-12-07T05:27:23;0.15;99.76
69503;SHT31;56704;54.242;12.442;2022-12-07T05:29:49;0.19;99.73
69503;SHT31;56704;54.242;12.442;2022-12-07T05:32:17;0.17;99.76
69503;SHT31;56704;54.242;12.442;2022-12-07T05:34:43;0.19;99.76
69503;SHT31;56704;54.242;12.442;2022-12-07T05:37:10;0.18;99.77
69503;SHT31;56704;54.242;12.442;2022-12-07T05:39:37;0.17;99.75
69503;SHT31;56704;54.242;12.442;2022-12-07T05:42:08;0.18;99.78
69503;SHT31;56704;54.242;12.442;2022-12-07T05:44:43;0.21;99.80
69503;SHT31;56704;54.242;12.442;2022-12-07T05:47:10;0.19;99.76
69503;SHT31;56704;54.242;12.442;2022-12-07T05:49:38;0.21;99.77
69503;SHT31;56704;54.242;12.442;2022-12-07T05:52:05;0.22;99.80
69503;SHT31;56704;54.242;12.442;2022-12-07T05:54:32;0.21;99.78
69503;SHT31;56704;54.242;12.442;2022-12-07T05:56:59;0.19;99.78
69503;SHT31;56704;54.242;12.442;2022-12-07T05:59:27;0.18;99.80
69503;SHT31;56704;54.242;12.442;2022-12-07T06:01:54;0.21;99.81
69503;SHT31;56704;54.242;12.442;2022-12-07T06:04:22;0.18;99.78
69503;SHT31;56704;54.242;12.442;2022-12-07T06:06:49;0.21;99.75
69503;SHT31;56704;54.242;12.442;2022-12-07T06:09:15;0.19;99.78
69503;SHT31;56704;54.242;12.442;2022-12-07T06:11:43;0.24;99.79
69503;SHT31;56704;54.242;12.442;2022-12-07T06:14:29;0.24;99.84
69503;SHT31;56704;54.242;12.442;2022-12-07T06:16:56;0.24;99.81
69503;SHT31;56704;54.242;12.442;2022-12-07T06:19:22;0.25;99.83
69503;SHT31;56704;54.242;12.442;2022-12-07T06:21:49;0.27;99.85
69503;SHT31;56704;54.242;12.442;2022-12-07T06:24:16;0.25;99.85
69503;SHT31;56704;54.242;12.442;2022-12-07T06:26:43;0.25;99.84
69503;SHT31;56704;54.242;12.442;2022-12-07T06:29:11;0.29;99.84
69503;SHT31;56704;54.242;12.442;2022-12-07T06:31:39;0.29;99.84
69503;SHT31;56704;54.242;12.442;2022-12-07T06:34:09;0.31;99.83
69503;SHT31;56704;54.242;12.442;2022-12-07T06:36:35;0.29;99.85
69503;SHT31;56704;54.242;12.442;2022-12-07T06:39:03;0.25;99.88
69503;SHT31;56704;54.242;12.442;2022-12-07T06:41:30;0.27;99.86
69503;SHT31;56704;54.242;12.442;2022-12-07T06:43:57;0.27;99.84
69503;SHT31;56704;54.242;12.442;2022-12-07T06:46:24;0.28;99.81
69503;SHT31;56704;54.242;12.442;2022-12-07T06:48:52;0.29;99.84
69503;SHT31;56704;54.242;12.442;2022-12-07T06:51:18;0.32;99.84
69503;SHT31;56704;54.242;12.442;2022-12-07T06:53:45;0.32;99.80
69503;SHT31;56704;54.242;12.442;2022-12-07T06:56:11;0.34;99.85
69503;SHT31;56704;54.242;12.442;2022-12-07T06:58:38;0.31;99.83
69503;SHT31;56704;54.242;12.442;2022-12-07T07:01:09;0.29;99.79
69503;SHT31;56704;54.242;12.442;2022-12-07T07:03:36;0.27;99.76
69503;SHT31;56704;54.242;12.442;2022-12-07T07:06:05;0.22;99.77
69503;SHT31;56704;54.242;12.442;2022-12-07T07:08:32;0.21;99.77
69503;SHT31;56704;54.242;12.442;2022-12-07T07:10:59;0.21;99.75
69503;SHT31;56704;54.242;12.442;2022-12-07T07:13:26;0.21;99.76
69503;SHT31;56704;54.242;12.442;2022-12-07T07:15:53;0.24;99.78
69503;SHT31;56704;54.242;12.442;2022-12-07T07:18:20;0.24;99.77
69503;SHT31;56704;54.242;12.442;2022-12-07T07:20:46;0.28;99.78
69503;SHT31;56704;54.242;12.442;2022-12-07T07:23:14;0.27;99.74
69503;SHT31;56704;54.242;12.442;2022-12-07T07:25:41;0.31;99.79
69503;SHT31;56704;54.242;12.442;2022-12-07T07:28:07;0.29;99.78
69503;SHT31;56704;54.242;12.442;2022-12-07T07:30:34;0.31;99.77
69503;SHT31;56704;54.242;12.442;2022-12-07T07:33:02;0.32;99.75
69503;SHT31;56704;54.242;12.442;2022-12-07T07:35:30;0.29;99.73
69503;SHT31;56704;54.242;12.442;2022-12-07T07:37:57;0.31;99.74
69503;SHT31;56704;54.242;12.442;2022-12-07T07:40:25;0.28;99.74
69503;SHT31;56704;54.242;12.442;2022-12-07T07:42:54;0.29;99.69
69503;SHT31;56704;54.242;12.442;2022-12-07T07:45:22;0.28;99.67
69503;SHT31;56704;54.242;12.442;2022-12-07T07:47:49;0.28;99.62
69503;SHT31;56704;54.242;12.442;2022-12-07T07:50:16;0.27;99.64
69503;SHT31;56704;54.242;12.442;2022-12-07T07:52:43;0.29;99.65
69503;SHT31;56704;54.242;12.442;2022-12-07T07:55:10;0.32;99.66
69503;SHT31;56704;54.242;12.442;2022-12-07T07:57:39;0.38;99.68
69503;SHT31;56704;54.242;12.442;2022-12-07T08:00:09;0.37;99.65
69503;SHT31;56704;54.242;12.442;2022-12-07T08:02:36;0.37;99.64
69503;SHT31;56704;54.242;12.442;2022-12-07T08:05:03;0.41;99.66
69503;SHT31;56704;54.242;12.442;2022-12-07T08:07:30;0.42;99.66
69503;SHT31;56704;54.242;12.442;2022-12-07T08:09:56;0.42;99.65
69503;SHT31;56704;54.242;12.442;2022-12-07T08:12:23;0.42;99.65
69503;SHT31;56704;54.242;12.442;2022-12-07T08:14:51;0.45;99.58
69503;SHT31;56704;54.242;12.442;2022-12-07T08:17:18;0.49;99.61
69503;SHT31;56704;54.242;12.442;2022-12-07T08:19:44;0.52;99.54
69503;SHT31;56704;54.242;12.442;2022-12-07T08:22:11;0.52;99.53
69503;SHT31;56704;54.242;12.442;2022-12-07T08:24:37;0.54;99.59
69503;SHT31;56704;54.242;12.442;2022-12-07T08:27:04;0.59;99.57
69503;SHT31;56704;54.242;12.442;2022-12-07T08:29:31;0.64;99.56
69503;SHT31;56704;54.242;12.442;2022-12-07T08:31:59;0.70;99.57
69503;SHT31;56704;54.242;12.442;2022-12-07T08:34:26;0.73;99.48
69503;SHT31;56704;54.242;12.442;2022-12-07T08:36:53;0.82;99.40
69503;SHT31;56704;54.242;12.442;2022-12-07T08:39:19;0.89;99.35
69503;SHT31;56704;54.242;12.442;2022-12-07T08:41:46;0.89;99.29
69503;SHT31;56704;54.242;12.442;2022-12-07T08:44:13;0.90;99.28
69503;SHT31;56704;54.242;12.442;2022-12-07T08:46:44;0.93;99.25
69503;SHT31;56704;54.242;12.442;2022-12-07T08:49:16;0.89;99.31
69503;SHT31;56704;54.242;12.442;2022-12-07T08:51:44;0.89;99.20
69503;SHT31;56704;54.242;12.442;2022-12-07T08:54:15;0.92;99.27
69503;SHT31;56704;54.242;12.442;2022-12-07T08:56:43;1.12;99.23
69503;SHT31;56704;54.242;12.442;2022-12-07T08:59:12;1.40;99.16
69503;SHT31;56704;54.242;12.442;2022-12-07T09:01:40;1.54;99.15
69503;SHT31;56704;54.242;12.442;2022-12-07T09:04:06;1.78;98.96
69503;SHT31;56704;54.242;12.442;2022-12-07T09:06:35;2.15;98.95
69503;SHT31;56704;54.242;12.442;2022-12-07T09:09:02;2.40;98.75
69503;SHT31;56704;54.242;12.442;2022-12-07T09:11:29;2.33;98.55
69503;SHT31;56704;54.242;12.442;2022-12-07T09:13:56;2.36;98.13
69503;SHT31;56704;54.242;12.442;2022-12-07T09:16:23;2.22;97.75
69503;SHT31;56704;54.242;12.442;2022-12-07T09:18:49;2.13;97.71
69503;SHT31;56704;54.242;12.442;2022-12-07T09:21:16;2.01;98.23
69503;SHT31;56704;54.242;12.442;2022-12-07T09:23:44;1.78;97.90
69503;SHT31;56704;54.242;12.442;2022-12-07T09:26:10;1.75;97.84
69503;SHT31;56704;54.242;12.442;2022-12-07T09:28:37;2.02;97.77
69503;SHT31;56704;54.242;12.442;2022-12-07T09:31:04;2.12;97.61
69503;SHT31;56704;54.242;12.442;2022-12-07T09:33:31;1.81;97.02
69503;SHT31;56704;54.242;12.442;2022-12-07T09:35:58;1.30;96.86
69503;SHT31;56704;54.242;12.442;2022-12-07T09:38:24;1.00;97.44
69503;SHT31;56704;54.242;12.442;2022-12-07T09:40:54;0.96;98.02
69503;SHT31;56704;54.242;12.442;2022-12-07T09:43:22;0.92;97.59
69503;SHT31;56704;54.242;12.442;2022-12-07T09:45:51;0.83;97.61
69503;SHT31;56704;54.242;12.442;2022-12-07T09:48:20;0.80;97.32
69503;SHT31;56704;54.242;12.442;2022-12-07T09:50:48;0.77;98.01
69503;SHT31;56704;54.242;12.442;2022-12-07T09:53:25;0.77;98.27
69503;SHT31;56704;54.242;12.442;2022-12-07T09:55:54;0.70;98.21
69503;SHT31;56704;54.242;12.442;2022-12-07T09:58:23;0.70;98.04
69503;SHT31;56704;54.242;12.442;2022-12-07T10:00:53;0.72;98.28
69503;SHT31;56704;54.242;12.442;2022-12-07T10:03:21;0.77;98.35
69503;SHT31;56704;54.242;12.442;2022-12-07T10:05:50;0.79;98.28
69503;SHT31;56704;54.242;12.442;2022-12-07T10:08:17;0.79;98.09
69503;SHT31;56704;54.242;12.442;2022-12-07T10:10:45;0.93;98.18
69503;SHT31;56704;54.242;12.442;2022-12-07T10:13:15;1.33;98.10
69503;SHT31;56704;54.242;12.442;2022-12-07T10:15:46;1.36;98.09
69503;SHT31;56704;54.242;12.442;2022-12-07T10:18:30;1.62;97.84
69503;SHT31;56704;54.242;12.442;2022-12-07T10:21:12;1.59;97.65
69503;SHT31;56704;54.242;12.442;2022-12-07T10:23:40;1.47;97.49
69503;SHT31;56704;54.242;12.442;2022-12-07T10:26:25;1.43;97.47
69503;SHT31;56704;54.242;12.442;2022-12-07T10:28:53;1.47;97.20
69503;SHT31;56704;54.242;12.442;2022-12-07T10:31:22;1.81;96.08
69503;SHT31;56704;54.242;12.442;2022-12-07T10:33:51;2.17;95.26
69503;SHT31;56704;54.242;12.442;2022-12-07T10:36:22;2.43;94.57
69503;SHT31;56704;54.242;12.442;2022-12-07T10:38:51;2.50;92.46
69503;SHT31;56704;54.242;12.442;2022-12-07T10:41:18;2.43;93.56
69503;SHT31;56704;54.242;12.442;2022-12-07T10:43:50;2.37;92.43
69503;SHT31;56704;54.242;12.442;2022-12-07T10:52:52;2.38;90.17
69503;SHT31;56704;54.242;12.442;2022-12-07T10:55:27;2.46;89.77
69503;SHT31;56704;54.242;12.442;2022-12-07T10:58:15;2.76;88.56
69503;SHT31;56704;54.242;12.442;2022-12-07T11:00:53;2.73;87.86
69503;SHT31;56704;54.242;12.442;2022-12-07T11:03:42;2.62;87.28
69503;SHT31;56704;54.242;12.442;2022-12-07T11:06:19;2.71;86.48
69503;SHT31;56704;54.242;12.442;2022-12-07T11:08:57;2.74;88.27
69503;SHT31;56704;54.242;12.442;2022-12-07T11:11:32;2.53;85.39
69503;SHT31;56704;54.242;12.442;2022-12-07T11:14:05;2.58;85.83
69503;SHT31;56704;54.242;12.442;2022-12-07T11:16:49;2.73;84.79
69503;SHT31;56704;54.242;12.442;2022-12-07T11:19:39;2.89;84.38
69503;SHT31;56704;54.242;12.442;2022-12-07T11:22:14;3.05;85.48
69503;SHT31;56704;54.242;12.442;2022-12-07T11:24:50;2.91;86.24
69503;SHT31;56704;54.242;12.442;2022-12-07T11:27:24;2.88;84.43
69503;SHT31;56704;54.242;12.442;2022-12-07T11:30:13;2.76;84.20
69503;SHT31;56704;54.242;12.442;2022-12-07T11:32:49;2.67;85.34
69503;SHT31;56704;54.242;12.442;2022-12-07T11:35:24;2.70;83.40
69503;SHT31;56704;54.242;12.442;2022-12-07T11:37:57;2.67;85.84
69503;SHT31;56704;54.242;12.442;2022-12-07T11:40:29;2.80;84.49
69503;SHT31;56704;54.242;12.442;2022-12-07T11:43:02;2.78;85.00
69503;SHT31;56704;54.242;12.442;2022-12-07T11:45:32;2.92;84.05
69503;SHT31;56704;54.242;12.442;2022-12-07T11:48:01;3.05;85.16
69503;SHT31;56704;54.242;12.442;2022-12-07T11:50:34;2.99;85.15
69503;SHT31;56704;54.242;12.442;2022-12-07T11:53:09;2.83;85.90
69503;SHT31;56704;54.242;12.442;2022-12-07T11:55:43;2.70;87.20
69503;SHT31;56704;54.242;12.442;2022-12-07T11:58:20;2.71;87.06
69503;SHT31;56704;54.242;12.442;2022-12-07T12:00:49;2.65;86.64
69503;SHT31;56704;54.242;12.442;2022-12-07T12:03:23;2.71;87.45
69503;SHT31;56704;54.242;12.442;2022-12-07T12:05:55;2.76;86.89
69503;SHT31;56704;54.242;12.442;2022-12-07T12:08:28;2.64;87.62
69503;SHT31;56704;54.242;12.442;2022-12-07T12:11:00;1.99;91.07
69503;SHT31;56704;54.242;12.442;2022-12-07T12:16:52;1.47;95.04
69503;SHT31;56704;54.242;12.442;2022-12-07T12:19:31;1.41;95.15
69503;SHT31;56704;54.242;12.442;2022-12-07T12:22:06;1.43;95.18
69503;SHT31;56704;54.242;12.442;2022-12-07T12:24:37;1.43;95.33
69503;SHT31;56704;54.242;12.442;2022-12-07T12:27:08;1.48;95.19
69503;SHT31;56704;54.242;12.442;2022-12-07T12:29:37;1.52;94.81
69503;SHT31;56704;54.242;12.442;2022-12-07T12:32:10;1.62;94.16
69503;SHT31;56704;54.242;12.442;2022-12-07T12:34:40;1.68;93.18
69503;SHT31;56704;54.242;12.442;2022-12-07T12:37:42;1.74;93.45
69503;SHT31;56704;54.242;12.442;2022-12-07T12:43:41;1.79;93.15
69503;SHT31;56704;54.242;12.442;2022-12-07T12:49:34;1.75;93.70
69503;SHT31;56704;54.242;12.442;2022-12-07T12:55:13;1.81;93.60
69503;SHT31;56704;54.242;12.442;2022-12-07T12:57:44;1.79;93.57
69503;SHT31;56704;54.242;12.442;2022-12-07T13:00:18;1.79;93.07
69503;SHT31;56704;54.242;12.442;2022-12-07T13:02:48;1.78;93.37
69503;SHT31;56704;54.242;12.442;2022-12-07T13:05:19;1.78;93.15
69503;SHT31;56704;54.242;12.442;2022-12-07T13:08:00;1.79;93.72
69503;SHT31;56704;54.242;12.442;2022-12-07T13:10:44;1.78;93.85
69503;SHT31;56704;54.242;12.442;2022-12-07T13:13:33;1.81;92.72
69503;SHT31;56704;54.242;12.442;2022-12-07T13:16:39;1.83;91.63
69503;SHT31;56704;54.242;12.442;2022-12-07T13:22:51;1.86;92.22
69503;SHT31;56704;54.242;12.442;2022-12-07T13:25:27;1.88;92.12
69503;SHT31;56704;54.242;12.442;2022-12-07T13:28:01;1.89;91.40
69503;SHT31;56704;54.242;12.442;2022-12-07T13:30:29;1.94;91.03
69503;SHT31;56704;54.242;12.442;2022-12-07T13:32:58;1.95;89.41
69503;SHT31;56704;54.242;12.442;2022-12-07T13:35:30;1.98;89.71
69503;SHT31;56704;54.242;12.442;2022-12-07T13:37:57;1.94;89.99
69503;SHT31;56704;54.242;12.442;2022-12-07T13:40:24;1.95;88.69
69503;SHT31;56704;54.242;12.442;2022-12-07T13:42:57;1.98;88.76
69503;SHT31;56704;54.242;12.442;2022-12-07T13:45:26;1.95;90.15
69503;SHT31;56704;54.242;12.442;2022-12-07T13:48:21;1.94;89.92
69503;SHT31;56704;54.242;12.442;2022-12-07T13:50:53;1.94;90.37
69503;SHT31;56704;54.242;12.442;2022-12-07T13:53:21;1.91;90.66
69503;SHT31;56704;54.242;12.442;2022-12-07T13:55:48;1.92;88.97
69503;SHT31;56704;54.242;12.442;2022-12-07T13:58:15;1.92;90.04
69503;SHT31;56704;54.242;12.442;2022-12-07T14:00:42;1.92;89.24
69503;SHT31;56704;54.242;12.442;2022-12-07T14:03:31;1.94;88.21
69503;SHT31;56704;54.242;12.442;2022-12-07T14:06:17;1.88;89.72
69503;SHT31;56704;54.242;12.442;2022-12-07T14:08:44;1.91;89.14
69503;SHT31;56704;54.242;12.442;2022-12-07T14:11:15;1.88;89.51
69503;SHT31;56704;54.242;12.442;2022-12-07T14:13:55;1.86;88.69
69503;SHT31;56704;54.242;12.442;2022-12-07T14:16:27;1.81;89.70
69503;SHT31;56704;54.242;12.442;2022-12-07T14:18:56;1.78;89.55
69503;SHT31;56704;54.242;12.442;2022-12-07T14:21:25;1.76;89.33
69503;SHT31;56704;54.242;12.442;2022-12-07T14:24:10;1.78;89.30
69503;SHT31;56704;54.242;12.442;2022-12-07T14:26:38;1.78;88.83
69503;SHT31;56704;54.242;12.442;2022-12-07T14:29:22;1.83;89.23
69503;SHT31;56704;54.242;12.442;2022-12-07T14:31:56;1.79;88.79
69503;SHT31;56704;54.242;12.442;2022-12-07T14:34:25;1.86;89.28
69503;SHT31;56704;54.242;12.442;2022-12-07T14:36:52;1.91;90.53
69503;SHT31;56704;54.242;12.442;2022-12-07T14:39:19;1.85;92.12
69503;SHT31;56704;54.242;12.442;2022-12-07T14:41:46;1.89;92.14
69503;SHT31;56704;54.242;12.442;2022-12-07T14:44:19;1.91;91.84
69503;SHT31;56704;54.242;12.442;2022-12-07T14:46:47;1.86;92.75
69503;SHT31;56704;54.242;12.442;2022-12-07T14:49:14;1.86;91.73
69503;SHT31;56704;54.242;12.442;2022-12-07T14:51:43;1.95;91.04
69503;SHT31;56704;54.242;12.442;2022-12-07T14:54:15;1.95;89.76
69503;SHT31;56704;54.242;12.442;2022-12-07T14:56:42;1.92;89.77
69503;SHT31;56704;54.242;12.442;2022-12-07T14:59:09;1.92;89.88
69503;SHT31;56704;54.242;12.442;2022-12-07T15:01:38;1.96;89.87
69503;SHT31;56704;54.242;12.442;2022-12-07T15:04:04;1.96;90.64
69503;SHT31;56704;54.242;12.442;2022-12-07T15:06:31;1.99;90.83
69503;SHT31;56704;54.242;12.442;2022-12-07T15:08:59;1.94;92.01
69503;SHT31;56704;54.242;12.442;2022-12-07T15:11:27;1.88;92.68
69503;SHT31;56704;54.242;12.442;2022-12-07T15:13:54;1.83;92.41
69503;SHT31;56704;54.242;12.442;2022-12-07T15:16:40;1.85;93.06
69503;SHT31;56704;54.242;12.442;2022-12-07T15:19:11;1.78;94.33
69503;SHT31;56704;54.242;12.442;2022-12-07T15:21:39;1.69;94.58
69503;SHT31;56704;54.242;12.442;2022-12-07T15:24:08;1.71;94.64
69503;SHT31;56704;54.242;12.442;2022-12-07T15:26:35;1.69;93.83
69503;SHT31;56704;54.242;12.442;2022-12-07T15:29:02;1.69;95.01
69503;SHT31;56704;54.242;12.442;2022-12-07T15:31:29;1.69;95.00
69503;SHT31;56704;54.242;12.442;2022-12-07T15:33:55;1.71;95.12
69503;SHT31;56704;54.242;12.442;2022-12-07T15:36:24;1.69;94.95
69503;SHT31;56704;54.242;12.442;2022-12-07T15:38:51;1.69;95.12
69503;SHT31;56704;54.242;12.442;2022-12-07T15:41:51;1.75;95.42
69503;SHT31;56704;54.242;12.442;2022-12-07T15:44:19;1.78;95.83
69503;SHT31;56704;54.242;12.442;2022-12-07T15:47:04;1.76;95.24
69503;SHT31;56704;54.242;12.442;2022-12-07T15:49:30;1.75;94.56
69503;SHT31;56704;54.242;12.442;2022-12-07T15:51:57;1.78;93.81
69503;SHT31;56704;54.242;12.442;2022-12-07T15:54:25;1.82;94.01
69503;SHT31;56704;54.242;12.442;2022-12-07T15:56:55;1.85;94.58
69503;SHT31;56704;54.242;12.442;2022-12-07T15:59:23;1.86;94.42
69503;SHT31;56704;54.242;12.442;2022-12-07T16:01:50;1.86;93.84
69503;SHT31;56704;54.242;12.442;2022-12-07T16:04:16;1.91;94.30
69503;SHT31;56704;54.242;12.442;2022-12-07T16:06:43;1.95;94.74
69503;SHT31;56704;54.242;12.442;2022-12-07T16:09:10;1.99;94.76
69503;SHT31;56704;54.242;12.442;2022-12-07T16:11:37;1.85;94.82
69503;SHT31;56704;54.242;12.442;2022-12-07T16:14:05;1.76;94.81